メインページ
METAR-TAF:

METAR-TAF

空港 :

イヴァト空港

アンタナナリボ, マダガスカル

緯度: 18-48S, 経度: 047-29E, 海抜: 1279m

現時点の気象観測

当レポートは9分前の05:30(UTC)に作成
西/北西の風 8kt、南西から北西の間で変化する
気温 20°C
湿度 53%
気圧 1021 hPa
視程10km以上
高度2000ftの雲はほとんどない

METAR: FMMI 220530Z 29008KT 220V320 9999 R11/0800N FEW020 20/10 Q1021 NOSIG

時間: 08:39 (05:39 UTC)

予報

当レポートは39分前の05:00(UTC)に作成
予報は22日の 06時(UTC)から 23日の 12時(UTC)まで有効
西/北西の風 10kt、最大20ktの突風を伴う
視程10km以上
高度2000ftの雲はほとんどない
22日の 18時(UTC)から 22日の 20時(UTC)まで徐々に
南東の風 6kt

TAF: FMMI 220500Z 2206/2312 30010G20KT 9999 FEW020 BECMG 2218/2220 14006KT

4,000以上の空港の気象観測と天気予報(METAR報とTAF報)

利用可能な観測所は地図上に黄色い丸と赤い丸で示す。

丸の上にカーソルを重ねると観測所名を参照できる。

次にクリックすると気象観測と天気予報を参照できる。

マップの切り替え:黒色「×」印の緑ボタンをクリックして拡大、「-」印の緑ボタンをクリックして縮小、緑色の三角印をクリックして隣りの地図に切り替え


METAR-TAF: